Pagrindinis puslapis
METAR-TAF:

METAR-TAF

Oro uostai :

La Pasas, Bolivija

platuma: 16-31S, ilguma: 068-11W, Aukštis: 4058 m

Dabartinis oras

Ataskaita buvo paskelbta 1 valandą ir 5 minutes, ne 10:00 UTC
Vėjas 7 kt iš Rytų
Temperatūra 1°C
Drėgmė 75%
Slėgis 1038 hPa
Matomumas 10 km arba daugiau
Mažai debesys ne aukštis 7000 ft
Išsisklaidę debesys ne aukštis 20000 ft

METAR: SLLP 221000Z 09007KT 9999 FEW070 SCT200 01/M03 Q1038

Laikas: 07:05 (11:05 UTC)

Prognozė

Ataskaita buvo paskelbta 7 valandos ir 5 minutes, ne 04:00 UTC
Prognozė galioja nuo 22 metu 06 UTC su 23 metu 06 UTC
Vėjas 5 kt iš Rytų
Matomumas 10 km arba daugiau
Tapsmas
nuo 22 metu 14 UTC su 22 metu 17 UTC
Vėjas 10 kt iš Pietryčių
Tapsmas
nuo 22 metu 23 UTC su 23 metu 01 UTC
Vėjas 5 kt iš Rytų/Šiaurės Rytų

TAF: SLLP 220400Z 2206/2306 10005KT 9999 NSC TX21/2219Z TN02/2210Z BECMG 2214/2217 14010KT BECMG 2223/2301 07005KT

Orai ataskaitas ir orų prognozės (METAR, TAF).

turimą stotys yra geltonos ir raudonos taškus žemėlapyje.

Perkelti pele per norėdami pamatyti stoties vardą.

Tada spustelėkite, norėdami matyti oro stebėjimo ir prognozės.

Norėdami pakeisti žemėlapį: spustelėkite ant žalios mygtukų su juodo kryžiaus žemyn,; žalią mygtuką su brūkšneliu, jei norite nutolinti; arba žalių rodyklių gretimoms žemėlapius.


METAR-TAF: